Time;durP1;ratioP1;P1;durP2;ratioP2;P2;SDS_P1;SDS_P2;PMS_P1;PMS_P2;Temp;Humidity;BMP_temperature;BMP_pressure;BME280_temperature;BME280_humidity;BME280_pressure;Samples;Min_cycle;Max_cycle;Signal;HPM_P1;HPM_P2
2022/05/30 00:00:15;;;;;;;1.55;1.00;;;17.40;58.50;;;;;;5109526;28;20134;-73
2022/05/30 00:02:43;;;;;;;1.45;0.90;;;17.50;60.10;;;;;;5093191;28;20063;-73
2022/05/30 00:05:10;;;;;;;1.67;0.82;;;17.60;58.60;;;;;;5089537;28;20665;-73
2022/05/30 00:07:37;;;;;;;1.63;1.00;;;17.10;60.00;;;;;;5089464;28;20056;-73
2022/05/30 00:10:06;;;;;;;1.85;0.95;;;17.40;58.10;;;;;;5091246;28;20094;-72
2022/05/30 00:12:32;;;;;;;2.08;1.10;;;17.00;58.50;;;;;;5089552;28;20048;-73
2022/05/30 00:14:59;;;;;;;1.80;1.02;;;16.60;59.20;;;;;;5089465;28;20054;-72
2022/05/30 00:17:26;;;;;;;1.20;0.80;;;17.40;54.00;;;;;;5107815;28;20053;-72
2022/05/30 00:19:54;;;;;;;1.48;1.05;;;17.40;54.00;;;;;;5109863;28;20055;-73
2022/05/30 00:22:20;;;;;;;1.50;0.90;;;16.50;58.00;;;;;;5109467;28;20579;-73
2022/05/30 00:24:49;;;;;;;3.53;1.08;;;17.00;58.70;;;;;;5109126;28;20056;-73
2022/05/30 00:27:16;;;;;;;1.00;0.80;;;17.20;59.30;;;;;;5109898;28;20542;-73
2022/05/30 00:29:42;;;;;;;1.05;0.90;;;17.30;58.90;;;;;;5109556;28;20486;-73
2022/05/30 00:32:09;;;;;;;1.60;0.93;;;17.20;58.40;;;;;;5106628;28;20060;-73
2022/05/30 00:34:36;;;;;;;2.25;0.90;;;17.50;59.90;;;;;;5088810;28;20060;-73
2022/05/30 00:37:04;;;;;;;1.10;0.73;;;17.40;54.00;;;;;;5089051;28;20048;-73
2022/05/30 00:39:32;;;;;;;0.73;0.70;;;17.20;58.40;;;;;;5088935;28;20059;-73
2022/05/30 00:42:07;;;;;;;1.70;0.77;;;17.20;59.30;;;;;;5088517;28;20052;-72
2022/05/30 00:44:34;;;;;;;1.52;0.88;;;17.60;58.40;;;;;;5087628;28;20052;-73
2022/05/30 00:47:01;;;;;;;1.38;0.80;;;17.20;58.30;;;;;;5088856;28;20051;-73
2022/05/30 00:49:28;;;;;;;1.50;1.00;;;17.10;58.60;;;;;;5095740;27;20452;-73
2022/05/30 00:51:56;;;;;;;2.22;0.90;;;17.80;59.00;;;;;;5129526;27;20050;-73
2022/05/30 00:54:27;;;;;;;2.42;0.90;;;18.00;60.20;;;;;;5128888;27;20058;-73
2022/05/30 00:56:55;;;;;;;1.77;0.90;;;17.50;58.70;;;;;;5129593;27;20413;-73
2022/05/30 00:59:22;;;;;;;1.50;0.80;;;16.40;58.90;;;;;;5129546;27;20413;-73
2022/05/30 01:01:49;;;;;;;1.80;0.82;;;17.30;53.90;;;;;;5122440;27;20127;-72
2022/05/30 01:07:01;;;;;;;;;;;17.30;53.90;;;;;;5094000;28;20479;-72
2022/05/30 01:09:31;;;;;;;1.45;0.90;;;17.50;58.80;;;;;;5088640;28;20039;-73
2022/05/30 01:11:59;;;;;;;1.75;0.93;;;17.20;54.00;;;;;;5088344;28;20052;-73
2022/05/30 01:14:28;;;;;;;1.85;0.90;;;17.20;58.70;;;;;;5087909;28;20075;-72
2022/05/30 01:16:55;;;;;;;1.70;1.00;;;17.50;58.80;;;;;;5088533;28;20083;-73
2022/05/30 01:19:43;;;;;;;1.45;0.82;;;17.30;53.90;;;;;;5098118;28;20051;-73
2022/05/30 01:22:19;;;;;;;1.02;0.88;;;17.40;59.00;;;;;;5108627;28;20043;-73
2022/05/30 01:24:49;;;;;;;1.05;0.90;;;17.20;58.30;;;;;;5107942;28;20074;-73
2022/05/30 01:27:24;;;;;;;1.60;0.80;;;17.30;59.20;;;;;;5108670;28;20048;-72
2022/05/30 01:29:55;;;;;;;1.60;0.80;;;18.10;59.90;;;;;;5108121;28;20055;-73
2022/05/30 01:32:22;;;;;;;1.58;0.90;;;17.20;53.80;;;;;;5107305;28;20039;-73
2022/05/30 01:34:49;;;;;;;1.20;0.75;;;17.10;58.70;;;;;;5108230;28;20067;-73
2022/05/30 01:37:16;;;;;;;0.90;0.77;;;17.50;58.60;;;;;;5108713;28;20058;-73
2022/05/30 01:39:43;;;;;;;1.70;0.80;;;17.20;58.40;;;;;;5108354;28;20516;-73
2022/05/30 01:42:10;;;;;;;1.13;0.80;;;17.50;59.30;;;;;;5101650;28;20054;-73
2022/05/30 01:44:37;;;;;;;1.52;0.80;;;17.30;59.40;;;;;;5096853;28;20131;-72
2022/05/30 01:47:05;;;;;;;1.15;0.80;;;18.20;59.50;;;;;;5093825;28;20048;-73
2022/05/30 01:49:32;;;;;;;1.83;1.02;;;17.20;53.80;;;;;;5099812;28;20043;-73
2022/05/30 01:51:59;;;;;;;1.75;1.00;;;17.00;58.30;;;;;;5101492;28;20549;-73
2022/05/30 01:54:26;;;;;;;1.90;0.80;;;17.70;58.80;;;;;;5096622;28;20127;-73
2022/05/30 01:56:53;;;;;;;1.77;0.90;;;16.80;58.70;;;;;;5101226;28;20482;-72
2022/05/30 01:59:20;;;;;;;1.02;0.70;;;16.60;58.10;;;;;;5098766;28;20108;-73
2022/05/30 02:01:47;;;;;;;0.70;0.70;;;17.20;58.60;;;;;;5100973;28;20043;-73
2022/05/30 02:04:15;;;;;;;3.78;0.82;;;18.00;58.70;;;;;;5096026;28;20506;-73
2022/05/30 02:06:41;;;;;;;1.60;0.90;;;17.20;60.30;;;;;;5103127;28;20050;-73
2022/05/30 02:09:09;;;;;;;1.05;0.70;;;17.10;59.00;;;;;;5108051;28;20058;-73
2022/05/30 02:11:35;;;;;;;1.25;0.77;;;17.30;58.70;;;;;;5108184;28;20499;-72
2022/05/30 02:14:02;;;;;;;1.35;0.82;;;17.20;54.80;;;;;;5107312;28;20051;-72
2022/05/30 02:19:17;;;;;;;1.23;0.80;;;16.70;60.00;;;;;;5107854;28;20065;-73
2022/05/30 02:21:44;;;;;;;1.15;0.77;;;17.10;58.80;;;;;;5105128;28;20061;-73
2022/05/30 02:24:11;;;;;;;0.95;0.60;;;17.00;58.30;;;;;;5087560;28;20406;-73
2022/05/30 02:26:37;;;;;;;1.23;0.73;;;17.10;53.70;;;;;;5087698;28;20048;-73
2022/05/30 02:29:05;;;;;;;1.88;0.90;;;16.30;57.60;;;;;;5087584;28;20131;-72
2022/05/30 02:31:31;;;;;;;1.27;0.77;;;16.80;58.40;;;;;;5087410;28;20058;-73
2022/05/30 02:36:44;;;;;;;2.33;0.90;;;17.30;59.10;;;;;;5087670;28;20051;-73
2022/05/30 02:39:12;;;;;;;1.02;0.70;;;17.00;53.70;;;;;;5098890;28;20054;-73
2022/05/30 02:41:40;;;;;;;1.05;0.95;;;17.60;59.10;;;;;;5107327;28;20054;-73
2022/05/30 02:44:07;;;;;;;1.63;0.73;;;16.30;57.60;;;;;;5107326;28;20412;-73
2022/05/30 02:46:34;;;;;;;1.02;0.90;;;18.10;60.20;;;;;;5107950;28;20063;-73
2022/05/30 02:49:00;;;;;;;1.27;0.80;;;16.80;59.40;;;;;;5107646;28;20062;-72
2022/05/30 02:51:27;;;;;;;2.35;1.08;;;17.20;58.80;;;;;;5107627;28;20135;-73
2022/05/30 02:53:56;;;;;;;1.10;0.80;;;17.10;59.60;;;;;;5107669;28;20047;-73
2022/05/30 02:56:22;;;;;;;1.88;0.80;;;18.00;59.20;;;;;;5088827;28;20454;-73
2022/05/30 02:58:49;;;;;;;1.48;0.90;;;17.00;58.30;;;;;;5088471;28;20521;-73
2022/05/30 03:01:16;;;;;;;1.20;0.80;;;16.90;59.10;;;;;;5094821;28;20063;-73
2022/05/30 03:03:43;;;;;;;1.42;0.80;;;16.80;58.60;;;;;;5107087;28;20059;-73
2022/05/30 03:06:09;;;;;;;1.15;0.82;;;17.00;53.70;;;;;;5107571;28;20140;-73
2022/05/30 03:08:36;;;;;;;0.93;0.70;;;17.90;59.40;;;;;;5109510;28;20580;-73
2022/05/30 03:11:04;;;;;;;1.20;0.80;;;17.80;59.10;;;;;;5110533;28;20055;-72
2022/05/30 03:13:31;;;;;;;0.85;0.80;;;17.00;53.90;;;;;;5090621;28;20048;-72
2022/05/30 03:15:58;;;;;;;2.15;0.95;;;17.00;53.70;;;;;;5090729;28;20056;-73
2022/05/30 03:18:26;;;;;;;1.55;0.90;;;16.40;57.90;;;;;;5090737;28;20060;-72
2022/05/30 03:20:52;;;;;;;1.08;0.80;;;17.00;58.40;;;;;;5097794;28;20043;-73
2022/05/30 03:23:19;;;;;;;1.02;0.80;;;17.30;58.60;;;;;;5110422;28;20040;-73
2022/05/30 03:25:46;;;;;;;1.02;0.70;;;16.40;58.00;;;;;;5110769;28;20062;-73
2022/05/30 03:28:14;;;;;;;1.38;0.93;;;16.70;58.40;;;;;;5107916;28;20413;-73
2022/05/30 03:30:41;;;;;;;1.40;0.85;;;16.60;59.50;;;;;;5090652;28;20056;-73
2022/05/30 03:33:09;;;;;;;0.82;0.65;;;16.90;53.60;;;;;;5089879;28;20043;-73
2022/05/30 03:35:36;;;;;;;1.42;0.82;;;16.80;60.20;;;;;;5090249;28;20052;-74
2022/05/30 03:38:03;;;;;;;0.90;0.80;;;16.90;58.40;;;;;;5091178;28;20048;-73
2022/05/30 03:40:29;;;;;;;1.13;0.80;;;16.80;58.80;;;;;;5090389;28;20410;-73
2022/05/30 03:42:56;;;;;;;1.58;0.77;;;16.70;58.50;;;;;;5089488;28;20098;-73
2022/05/30 03:45:24;;;;;;;1.20;0.75;;;16.90;58.40;;;;;;5098988;28;20055;-73
2022/05/30 03:47:51;;;;;;;0.95;0.68;;;17.00;59.00;;;;;;5110553;28;20409;-73
2022/05/30 03:50:21;;;;;;;1.40;0.70;;;16.90;59.90;;;;;;5110279;28;20079;-73
2022/05/30 03:52:48;;;;;;;1.00;0.88;;;16.70;58.90;;;;;;5110182;28;20054;-73
2022/05/30 03:55:15;;;;;;;1.23;0.85;;;16.90;53.70;;;;;;5110116;28;20387;-73
2022/05/30 03:57:42;;;;;;;1.23;0.70;;;16.80;58.20;;;;;;5109961;28;20055;-72
2022/05/30 04:00:10;;;;;;;1.27;0.90;;;17.10;59.50;;;;;;5109956;28;20051;-73
2022/05/30 04:02:38;;;;;;;1.15;0.70;;;16.90;53.70;;;;;;5108674;28;20063;-72
2022/05/30 04:05:05;;;;;;;1.10;0.75;;;16.10;58.00;;;;;;5109588;28;20063;-72
2022/05/30 04:07:32;;;;;;;1.05;0.88;;;18.00;60.00;;;;;;5110161;28;20135;-73
2022/05/30 04:09:58;;;;;;;1.25;0.80;;;16.90;53.70;;;;;;5110049;28;20641;-73
2022/05/30 04:12:25;;;;;;;1.30;0.90;;;16.90;53.70;;;;;;5109895;28;20047;-73
2022/05/30 04:14:55;;;;;;;0.70;0.70;;;16.90;58.90;;;;;;5109603;28;20051;-73
2022/05/30 04:17:22;;;;;;;0.88;0.80;;;16.90;58.80;;;;;;5109533;28;20051;-73
2022/05/30 04:19:50;;;;;;;0.85;0.70;;;16.90;59.70;;;;;;5090795;28;20110;-72
2022/05/30 04:22:17;;;;;;;1.88;0.80;;;16.10;58.10;;;;;;5088986;28;20080;-73
2022/05/30 04:24:44;;;;;;;0.95;0.77;;;16.90;53.60;;;;;;5088993;28;20135;-73
2022/05/30 04:27:10;;;;;;;1.17;0.90;;;16.80;58.20;;;;;;5089166;28;20048;-73
2022/05/30 04:29:37;;;;;;;1.35;1.00;;;17.10;58.40;;;;;;5089320;28;20051;-72
2022/05/30 04:32:05;;;;;;;1.27;0.82;;;16.90;53.60;;;;;;5089289;28;20055;-73
2022/05/30 04:34:32;;;;;;;1.73;0.90;;;17.10;59.30;;;;;;5093078;28;20035;-73
2022/05/30 04:37:00;;;;;;;1.65;0.88;;;16.90;58.70;;;;;;5109088;28;20062;-73
2022/05/30 04:39:26;;;;;;;0.85;0.70;;;17.40;58.60;;;;;;5109440;28;20160;-73
2022/05/30 04:41:53;;;;;;;1.52;0.90;;;17.10;58.80;;;;;;5110441;28;20051;-73
2022/05/30 04:44:20;;;;;;;1.45;0.90;;;17.40;58.40;;;;;;5108512;28;20580;-73
2022/05/30 04:46:51;;;;;;;1.63;0.90;;;17.20;58.60;;;;;;5109039;28;20051;-73
2022/05/30 04:49:18;;;;;;;1.55;1.00;;;17.00;53.60;;;;;;5110754;27;20059;-73
2022/05/30 04:51:45;;;;;;;1.40;0.90;;;;;;;;;;5115862;27;20067;-73
2022/05/30 04:54:13;;;;;;;1.90;0.90;;;16.90;58.20;;;;;;5109769;28;20044;-73
2022/05/30 04:56:40;;;;;;;0.88;0.80;;;17.10;58.30;;;;;;5109120;28;20052;-73
2022/05/30 04:59:07;;;;;;;0.90;0.70;;;16.80;58.60;;;;;;5109087;28;20105;-73
2022/05/30 05:01:34;;;;;;;1.20;0.77;;;17.00;60.30;;;;;;5108332;28;20052;-73
2022/05/30 05:04:00;;;;;;;1.83;0.82;;;17.00;53.60;;;;;;5108291;28;20087;-73
2022/05/30 05:06:27;;;;;;;1.55;0.75;;;17.00;58.40;;;;;;5108616;28;20052;-73
2022/05/30 05:08:55;;;;;;;0.63;0.63;;;17.00;60.00;;;;;;5106788;28;20055;-73
2022/05/30 05:11:24;;;;;;;0.90;0.73;;;17.00;58.40;;;;;;5091857;28;20051;-73
2022/05/30 05:13:51;;;;;;;1.23;0.80;;;17.00;53.50;;;;;;5108143;28;20047;-72
2022/05/30 05:16:19;;;;;;;0.90;0.70;;;16.80;58.40;;;;;;5108571;28;20130;-73
2022/05/30 05:18:46;;;;;;;1.02;0.70;;;16.30;57.90;;;;;;5108657;28;20486;-73
2022/05/30 05:21:17;;;;;;;1.40;0.90;;;17.00;58.20;;;;;;5108714;28;20525;-72
2022/05/30 05:23:44;;;;;;;0.93;0.73;;;17.20;58.40;;;;;;5106050;28;20048;-73
2022/05/30 05:26:11;;;;;;;1.48;0.82;;;17.00;59.80;;;;;;5108577;28;20054;-73
2022/05/30 05:28:39;;;;;;;1.25;0.75;;;16.90;58.20;;;;;;5108341;28;20077;-73
2022/05/30 05:31:06;;;;;;;1.25;0.90;;;17.30;58.60;;;;;;5108012;28;20059;-73
2022/05/30 05:33:33;;;;;;;0.52;0.50;;;16.40;57.60;;;;;;5108175;28;20048;-72
2022/05/30 05:36:00;;;;;;;1.17;0.68;;;17.70;58.80;;;;;;5108349;28;20383;-73
2022/05/30 05:38:26;;;;;;;1.23;0.90;;;17.20;58.30;;;;;;5108106;28;20058;-72
2022/05/30 05:40:53;;;;;;;0.80;0.70;;;17.10;58.40;;;;;;5106325;28;20061;-72
2022/05/30 05:43:20;;;;;;;0.77;0.70;;;17.20;58.70;;;;;;5107850;28;20405;-72
2022/05/30 05:45:48;;;;;;;0.77;0.57;;;18.00;59.30;;;;;;5108129;28;20052;-72
2022/05/30 05:48:15;;;;;;;0.77;0.77;;;17.20;59.20;;;;;;5107752;28;20052;-73
2022/05/30 05:50:42;;;;;;;1.23;0.50;;;16.80;58.20;;;;;;5107769;28;20058;-73
2022/05/30 05:53:09;;;;;;;0.98;0.63;;;16.90;58.20;;;;;;5107963;28;20047;-72
2022/05/30 05:55:36;;;;;;;1.65;1.00;;;16.10;57.40;;;;;;5107823;28;20055;-72
2022/05/30 05:58:02;;;;;;;1.35;0.80;;;17.30;57.80;;;;;;5092065;28;20077;-73
2022/05/30 06:00:31;;;;;;;0.73;0.70;;;17.10;58.10;;;;;;5087561;28;20060;-72
2022/05/30 06:02:59;;;;;;;0.95;0.73;;;17.00;58.40;;;;;;5102224;28;20059;-72
2022/05/30 06:05:26;;;;;;;1.20;0.70;;;17.10;58.20;;;;;;5107848;28;20055;-73
2022/05/30 06:07:53;;;;;;;2.63;0.98;;;17.20;59.00;;;;;;5107908;28;20501;-72
2022/05/30 06:10:21;;;;;;;1.33;0.70;;;17.30;58.90;;;;;;5107796;28;20138;-72
2022/05/30 06:12:48;;;;;;;0.88;0.80;;;16.30;58.60;;;;;;5106673;28;20112;-72
2022/05/30 06:15:16;;;;;;;0.70;0.70;;;17.40;53.10;;;;;;5087983;28;20138;-72
2022/05/30 06:17:42;;;;;;;0.70;0.70;;;17.50;57.80;;;;;;5087663;28;20399;-72
2022/05/30 06:20:12;;;;;;;0.93;0.60;;;17.30;58.10;;;;;;5087378;28;20083;-73
2022/05/30 06:22:39;;;;;;;2.25;0.80;;;16.60;58.40;;;;;;5087287;28;20058;-72
2022/05/30 06:25:07;;;;;;;0.70;0.70;;;17.50;58.00;;;;;;5086475;28;20055;-72
2022/05/30 06:27:34;;;;;;;1.20;0.70;;;18.30;59.30;;;;;;5087350;28;20056;-71
2022/05/30 06:30:01;;;;;;;1.67;0.90;;;17.50;53.00;;;;;;5088643;28;20476;-72
2022/05/30 06:32:28;;;;;;;5.50;1.00;;;17.60;58.40;;;;;;5088834;28;20047;-71
2022/05/30 06:34:55;;;;;;;2.20;1.10;;;16.70;57.80;;;;;;5087184;28;20056;-71
2022/05/30 06:37:23;;;;;;;3.50;0.80;;;17.70;57.50;;;;;;5087486;28;20052;-71
2022/05/30 06:39:51;;;;;;;2.17;0.63;;;17.60;58.10;;;;;;5088528;28;20495;-71
2022/05/30 06:42:18;;;;;;;1.08;0.70;;;18.00;57.70;;;;;;5088237;28;20055;-71
2022/05/30 06:44:45;;;;;;;1.73;0.80;;;17.60;57.70;;;;;;5098211;28;20123;-73
2022/05/30 06:47:12;;;;;;;2.33;0.82;;;17.80;52.70;;;;;;5101353;28;20661;-73
2022/05/30 06:49:39;;;;;;;0.80;0.70;;;18.20;58.50;;;;;;5095686;28;20096;-73
2022/05/30 06:52:06;;;;;;;3.35;0.93;;;18.00;57.90;;;;;;5111691;28;20541;-72
2022/05/30 06:54:34;;;;;;;1.45;0.80;;;19.40;58.30;;;;;;5112613;28;20071;-72
2022/05/30 06:59:45;;;;;;;1.15;0.80;;;18.50;56.40;;;;;;5111427;28;20134;-72
2022/05/30 07:02:12;;;;;;;0.90;0.73;;;18.60;57.70;;;;;;5100923;28;20048;-72
2022/05/30 07:04:39;;;;;;;2.53;0.80;;;18.50;51.90;;;;;;5091432;28;20032;-72
2022/05/30 07:07:06;;;;;;;3.95;0.77;;;19.10;57.60;;;;;;5108538;28;20058;-72
2022/05/30 07:09:34;;;;;;;1.23;0.90;;;18.70;51.70;;;;;;5111111;28;20605;-72
2022/05/30 07:12:00;;;;;;;0.77;0.73;;;18.50;56.40;;;;;;5111466;28;20061;-73
2022/05/30 07:14:27;;;;;;;2.13;0.60;;;18.80;56.80;;;;;;5111024;28;20450;-72
2022/05/30 07:16:54;;;;;;;3.33;1.13;;;18.90;57.40;;;;;;5111393;28;20051;-73
2022/05/30 07:19:21;;;;;;;0.95;0.70;;;19.00;56.00;;;;;;5111163;28;20547;-73
2022/05/30 07:21:48;;;;;;;0.68;0.60;;;18.90;56.40;;;;;;5090430;28;20056;-73
2022/05/30 07:24:15;;;;;;;0.77;0.63;;;18.80;55.60;;;;;;5095656;28;20047;-71
2022/05/30 07:26:43;;;;;;;1.90;0.50;;;19.70;57.00;;;;;;5102925;28;20135;-73
2022/05/30 07:29:10;;;;;;;1.65;0.65;;;18.90;55.80;;;;;;5100624;28;20052;-73
2022/05/30 07:31:36;;;;;;;2.17;0.80;;;19.10;51.20;;;;;;5099614;28;20048;-72
2022/05/30 07:34:03;;;;;;;1.33;0.70;;;19.20;56.50;;;;;;5096065;28;20074;-72
2022/05/30 07:36:31;;;;;;;2.15;0.80;;;19.20;56.60;;;;;;5095878;28;20052;-73
2022/05/30 07:38:58;;;;;;;2.28;0.70;;;19.10;55.90;;;;;;5094585;28;20055;-72
2022/05/30 07:41:26;;;;;;;2.22;0.80;;;19.80;55.70;;;;;;5105572;28;20051;-73
2022/05/30 07:43:54;;;;;;;1.92;0.60;;;19.20;55.70;;;;;;5108954;28;20052;-72
2022/05/30 07:46:20;;;;;;;0.65;0.57;;;19.10;55.80;;;;;;5095828;28;20066;-73
2022/05/30 07:48:47;;;;;;;1.58;0.70;;;19.30;56.30;;;;;;5106832;28;20055;-72
2022/05/30 07:51:14;;;;;;;0.70;0.70;;;19.50;56.00;;;;;;5101031;28;20056;-73
2022/05/30 07:53:42;;;;;;;1.38;0.60;;;19.20;51.00;;;;;;5090277;28;20263;-71
2022/05/30 07:56:09;;;;;;;2.10;0.77;;;19.00;56.00;;;;;;5105497;28;20062;-70
2022/05/30 07:58:37;;;;;;;0.63;0.55;;;20.10;56.30;;;;;;5099118;27;20418;-72
2022/05/30 08:01:05;;;;;;;0.90;0.70;;;19.20;51.00;;;;;;5089974;28;20134;-73
2022/05/30 08:03:32;;;;;;;1.08;0.80;;;19.10;55.70;;;;;;5104337;28;20465;-74
2022/05/30 08:06:03;;;;;;;0.75;0.60;;;19.10;51.00;;;;;;5093089;28;20051;-72
2022/05/30 08:08:30;;;;;;;1.45;0.50;;;19.00;56.30;;;;;;5089620;28;20392;-71
2022/05/30 08:10:57;;;;;;;2.95;0.75;;;18.10;55.30;;;;;;5109833;28;20063;-72
2022/05/30 08:13:23;;;;;;;2.20;0.75;;;19.10;56.70;;;;;;5109344;28;20058;-72
2022/05/30 08:15:50;;;;;;;1.13;0.70;;;19.10;56.30;;;;;;5104238;28;20581;-73
2022/05/30 08:18:19;;;;;;;1.10;0.80;;;18.90;51.30;;;;;;5097056;28;20052;-72
2022/05/30 08:20:45;;;;;;;1.83;0.77;;;18.90;56.20;;;;;;5103124;28;20067;-72
2022/05/30 08:23:12;;;;;;;1.55;0.70;;;18.80;51.30;;;;;;5089092;28;20051;-74
2022/05/30 08:25:39;;;;;;;0.57;0.57;;;18.80;51.40;;;;;;5106507;28;20040;-72
2022/05/30 08:28:06;;;;;;;0.80;0.70;;;19.70;56.40;;;;;;5093193;28;20067;-72
2022/05/30 08:30:33;;;;;;;1.40;0.80;;;18.80;56.80;;;;;;5096824;28;20066;-71
2022/05/30 08:32:59;;;;;;;0.88;0.70;;;18.60;55.90;;;;;;5092659;28;20062;-71
2022/05/30 08:35:27;;;;;;;1.10;0.80;;;18.90;56.70;;;;;;5089599;28;20039;-70
2022/05/30 08:37:56;;;;;;;1.27;0.70;;;18.70;55.90;;;;;;5106932;28;20126;-72
2022/05/30 08:43:09;;;;;;;1.48;0.70;;;18.70;56.50;;;;;;5106473;28;20057;-71
2022/05/30 08:45:36;;;;;;;0.90;0.80;;;19.70;56.60;;;;;;5104523;28;20478;-72
2022/05/30 08:48:04;;;;;;;2.58;0.80;;;18.90;51.70;;;;;;5093942;28;20132;-72
2022/05/30 08:50:39;;;;;;;1.23;0.70;;;18.30;56.80;;;;;;5100022;28;20063;-70
2022/05/30 08:53:10;;;;;;;;;;;19.00;51.80;;;;;;5106976;28;20097;-71
2022/05/30 08:55:43;;;;;;;2.22;0.98;;;19.30;57.50;;;;;;5092898;28;19920;-70
2022/05/30 08:58:15;;;;;;;2.53;0.80;;;18.80;56.30;;;;;;5100745;28;20040;-71
2022/05/30 09:00:45;;;;;;;2.28;0.80;;;19.00;56.20;;;;;;5106462;28;20695;-71
2022/05/30 09:03:14;;;;;;;1.33;0.70;;;19.20;55.80;;;;;;5106977;28;20104;-71
2022/05/30 09:05:44;;;;;;;0.93;0.70;;;18.70;56.50;;;;;;5105428;28;20048;-71
2022/05/30 09:08:14;;;;;;;2.58;0.80;;;19.10;56.60;;;;;;5096382;28;20048;-71
2022/05/30 09:10:42;;;;;;;0.90;0.63;;;19.30;57.20;;;;;;5108407;28;20060;-71
2022/05/30 09:13:15;;;;;;;1.35;0.85;;;18.10;57.60;;;;;;5094188;28;20040;-71
2022/05/30 09:15:43;;;;;;;0.68;0.68;;;19.60;56.50;;;;;;5101178;28;20047;-71
2022/05/30 09:18:11;;;;;;;0.77;0.60;;;20.30;57.40;;;;;;5108525;28;20146;-72
2022/05/30 09:20:41;;;;;;;1.27;0.80;;;19.40;51.60;;;;;;5108506;28;20059;-72
2022/05/30 09:23:09;;;;;;;1.95;0.70;;;19.50;58.10;;;;;;5103462;28;20135;-71
2022/05/30 09:28:21;;;;;;;0.52;0.52;;;20.20;57.30;;;;;;5093208;28;20035;-71
2022/05/30 09:30:51;;;;;;;1.55;0.80;;;19.40;56.50;;;;;;5107762;28;20069;-71
2022/05/30 09:33:23;;;;;;;0.98;0.70;;;19.40;56.30;;;;;;5107441;28;20062;-71
2022/05/30 09:35:50;;;;;;;22.45;6.07;;;19.60;51.50;;;;;;5094626;28;20684;-71
2022/05/30 09:38:20;;;;;;;16.92;5.38;;;19.60;56.50;;;;;;5087645;28;20052;-71
2022/05/30 09:40:48;;;;;;;18.00;4.70;;;19.50;57.30;;;;;;5087883;28;20060;-72
2022/05/30 09:43:24;;;;;;;18.20;5.03;;;19.70;51.50;;;;;;5087524;28;20054;-71
2022/05/30 09:45:51;;;;;;;12.68;3.72;;;19.60;56.20;;;;;;5087628;28;20048;-71
2022/05/30 09:48:19;;;;;;;11.18;4.03;;;19.60;56.40;;;;;;5106289;28;20060;-71
2022/05/30 09:50:47;;;;;;;11.77;3.70;;;20.20;56.60;;;;;;5116064;27;20040;-71
2022/05/30 09:53:15;;;;;;;8.73;3.22;;;19.80;56.30;;;;;;5093224;28;20075;-71
2022/05/30 09:55:45;;;;;;;9.18;3.00;;;19.80;51.30;;;;;;5096266;28;20044;-71
2022/05/30 09:58:12;;;;;;;9.10;3.00;;;19.80;56.00;;;;;;5101187;28;20056;-71
2022/05/30 10:00:43;;;;;;;11.43;4.72;;;20.80;57.50;;;;;;5108011;28;20083;-71
2022/05/30 10:03:12;;;;;;;13.90;4.70;;;19.70;56.60;;;;;;5101013;28;20048;-72
2022/05/30 10:05:39;;;;;;;11.57;4.30;;;19.90;56.40;;;;;;5086801;28;20607;-71
2022/05/30 10:08:08;;;;;;;11.20;4.60;;;19.90;56.20;;;;;;5087061;28;20143;-70
2022/05/30 10:10:38;;;;;;;19.60;6.22;;;20.00;56.10;;;;;;5104667;28;20062;-71
2022/05/30 10:13:07;;;;;;;14.52;5.50;;;19.70;56.30;;;;;;5099382;28;20047;-72
2022/05/30 10:15:36;;;;;;;15.45;5.57;;;20.00;51.30;;;;;;5105850;28;20066;-71
2022/05/30 10:18:22;;;;;;;12.93;5.22;;;19.20;55.60;;;;;;5090077;28;20102;-70
2022/05/30 10:20:57;;;;;;;10.45;4.20;;;20.00;56.50;;;;;;5095057;28;20069;-71
2022/05/30 10:29:09;;;;;;;10.27;3.83;;;19.90;56.40;;;;;;5111345;28;20134;-71
2022/05/30 10:31:40;;;;;;;10.23;3.80;;;20.00;56.10;;;;;;5111823;28;20066;-71
2022/05/30 10:34:34;;;;;;;10.27;3.22;;;19.40;54.30;;;;;;5111561;28;20061;-71
2022/05/30 10:37:19;;;;;;;8.68;3.17;;;19.00;56.60;;;;;;5081217;28;20136;-71
2022/05/30 10:40:03;;;;;;;9.18;3.33;;;20.90;56.40;;;;;;5108439;28;20060;-71
2022/05/30 10:42:32;;;;;;;7.93;2.92;;;20.20;51.30;;;;;;5092214;28;20060;-71
2022/05/30 10:45:02;;;;;;;7.63;2.90;;;20.10;51.20;;;;;;5104098;28;20430;-71
2022/05/30 10:47:35;;;;;;;8.10;3.00;;;20.10;56.90;;;;;;5094873;28;20031;-71
2022/05/30 10:50:03;;;;;;;8.05;2.58;;;20.20;56.40;;;;;;5105736;27;20040;-71
2022/05/30 10:52:32;;;;;;;7.65;2.78;;;20.10;51.40;;;;;;5104137;28;20039;-72
2022/05/30 10:55:01;;;;;;;5.28;2.50;;;20.10;57.10;;;;;;5094329;28;20055;-72
2022/05/30 10:57:39;;;;;;;8.30;2.60;;;19.20;55.30;;;;;;5097655;28;20519;-72
2022/05/30 11:00:10;;;;;;;6.55;2.22;;;20.00;51.30;;;;;;5096140;28;20135;-72
2022/05/30 11:02:44;;;;;;;6.25;2.08;;;19.70;56.10;;;;;;5098543;28;20067;-72
2022/05/30 11:05:12;;;;;;;9.88;2.35;;;19.90;56.30;;;;;;5105293;28;20083;-72
2022/05/30 11:07:43;;;;;;;5.25;2.30;;;20.00;51.50;;;;;;5097053;28;20490;-72
2022/05/30 11:10:24;;;;;;;4.85;1.90;;;19.80;56.90;;;;;;5102973;28;20054;-71
2022/05/30 11:12:56;;;;;;;8.07;2.50;;;19.90;56.90;;;;;;5103263;28;20395;-71
2022/05/30 11:15:26;;;;;;;5.18;1.80;;;20.00;56.50;;;;;;5106620;28;20045;-71
2022/05/30 11:17:58;;;;;;;6.95;1.85;;;20.00;51.70;;;;;;5099729;28;20051;-71
2022/05/30 11:20:27;;;;;;;5.57;2.05;;;19.70;55.90;;;;;;5090368;28;20058;-71
2022/05/30 11:22:55;;;;;;;4.72;1.90;;;20.00;56.60;;;;;;5099211;28;20545;-71
2022/05/30 11:25:26;;;;;;;5.32;1.90;;;19.90;51.70;;;;;;5110581;28;20669;-71
2022/05/30 11:27:56;;;;;;;5.35;1.88;;;19.90;55.90;;;;;;5110848;28;20059;-71
2022/05/30 11:30:43;;;;;;;4.07;1.75;;;18.80;55.80;;;;;;5101606;28;20058;-71
2022/05/30 11:33:48;;;;;;;4.90;1.70;;;20.00;57.00;;;;;;5100893;28;20517;-70
2022/05/30 11:36:24;;;;;;;4.10;2.03;;;19.20;55.90;;;;;;5081532;28;20047;-72
2022/05/30 11:39:15;;;;;;;3.55;1.67;;;19.90;56.60;;;;;;5100149;28;20066;-71
2022/05/30 11:41:51;;;;;;;5.07;1.85;;;19.90;56.30;;;;;;5097133;28;20049;-71
2022/05/30 11:44:24;;;;;;;6.55;1.60;;;19.90;55.50;;;;;;5100755;28;20048;-73
2022/05/30 11:46:57;;;;;;;4.28;1.38;;;19.90;51.70;;;;;;5103741;28;20043;-73
2022/05/30 11:49:30;;;;;;;3.60;1.55;;;19.80;56.10;;;;;;5112894;27;20138;-72
2022/05/30 11:52:01;;;;;;;3.05;1.83;;;22.10;53.30;;;;;;5107512;27;20067;-73
2022/05/30 11:54:36;;;;;;;4.55;1.45;;;19.60;56.90;;;;;;5104030;28;20056;-71
2022/05/30 11:57:09;;;;;;;;;;;19.90;52.50;;;;;;5090023;28;20060;-71
2022/05/30 11:59:56;;;;;;;2.70;1.20;;;19.70;57.10;;;;;;5094175;28;19924;-71
2022/05/30 12:02:26;;;;;;;4.43;1.40;;;19.90;52.20;;;;;;5109455;28;20615;-72
2022/05/30 12:05:21;;;;;;;4.35;1.38;;;19.90;52.10;;;;;;5108439;28;20056;-71
2022/05/30 12:08:07;;;;;;;5.68;1.52;;;19.90;51.60;;;;;;5086997;28;20048;-71
2022/05/30 12:10:43;;;;;;;3.45;1.20;;;19.90;56.30;;;;;;5089430;28;20062;-72
2022/05/30 12:13:16;;;;;;;3.08;1.25;;;19.90;52.00;;;;;;5089035;28;20619;-72
2022/05/30 12:15:54;;;;;;;2.10;1.20;;;18.60;55.80;;;;;;5097859;28;20046;-72
2022/05/30 12:24:30;;;;;;;2.13;1.13;;;19.90;55.60;;;;;;5099892;27;20048;-72
2022/05/30 12:27:02;;;;;;;4.00;1.20;;;18.90;56.20;;;;;;5108457;28;20484;-72
2022/05/30 12:29:48;;;;;;;2.08;1.20;;;19.80;52.10;;;;;;5108972;28;20073;-72
2022/05/30 12:32:34;;;;;;;3.17;1.10;;;19.40;56.80;;;;;;5109493;28;20058;-71
2022/05/30 12:35:21;;;;;;;1.77;1.10;;;19.60;56.30;;;;;;5110067;28;20054;-72
2022/05/30 12:37:48;;;;;;;3.08;1.10;;;20.30;57.70;;;;;;5109684;28;20048;-72
2022/05/30 12:40:32;;;;;;;2.75;1.35;;;20.20;57.10;;;;;;5120079;27;20533;-72
2022/05/30 12:43:03;;;;;;;1.30;0.98;;;19.60;52.20;;;;;;5120471;27;20055;-71
2022/05/30 12:45:36;;;;;;;3.55;1.00;;;19.60;57.70;;;;;;5109502;28;20051;-72
2022/05/30 12:48:10;;;;;;;2.92;1.02;;;19.30;57.10;;;;;;5108300;28;20138;-72
2022/05/30 12:51:00;;;;;;;2.17;1.10;;;20.50;57.30;;;;;;5121251;27;20055;-72
2022/05/30 12:53:42;;;;;;;1.52;0.88;;;19.50;52.40;;;;;;5129596;27;20061;-71
2022/05/30 12:56:08;;;;;;;1.52;1.02;;;19.40;57.00;;;;;;5128933;27;20047;-70
2022/05/30 12:59:06;;;;;;;2.25;1.25;;;20.40;57.50;;;;;;5108258;28;20055;-72
2022/05/30 13:01:51;;;;;;;3.42;1.10;;;19.50;52.60;;;;;;5108489;28;20409;-73
2022/05/30 13:04:24;;;;;;;3.83;1.10;;;19.80;56.70;;;;;;5099856;28;20051;-72
2022/05/30 13:06:56;;;;;;;1.13;0.70;;;19.40;52.70;;;;;;5088319;28;20052;-71
2022/05/30 13:09:25;;;;;;;2.53;1.00;;;19.40;52.70;;;;;;5088712;28;20644;-71
2022/05/30 13:12:05;;;;;;;2.10;1.00;;;19.40;52.80;;;;;;5088299;27;20575;-71
2022/05/30 13:15:00;;;;;;;2.15;1.05;;;19.50;52.80;;;;;;5089239;28;20055;-71
2022/05/30 13:17:31;;;;;;;1.42;0.80;;;19.50;52.40;;;;;;5063839;28;20526;-74
2022/05/30 13:20:01;;;;;;;1.50;0.95;;;19.40;52.40;;;;;;5088389;28;20052;-72
2022/05/30 13:22:30;;;;;;;1.65;0.93;;;18.90;56.60;;;;;;5088432;28;20102;-72
2022/05/30 13:24:57;;;;;;;1.25;0.68;;;19.40;57.80;;;;;;5087847;28;20058;-72
2022/05/30 13:27:26;;;;;;;1.75;0.85;;;19.40;58.40;;;;;;5088018;28;20058;-72